sensor_id;sensor_type;location;lat;lon;timestamp;P1;durP1;ratioP1;P2;durP2;ratioP2
69779;SDS011;57052;55.602;38.096;2022-12-29T00:01:36;4.40;;;1.60;;
69779;SDS011;57052;55.602;38.096;2022-12-29T00:04:01;4.03;;;2.00;;
69779;SDS011;57052;55.602;38.096;2022-12-29T00:06:28;4.63;;;1.90;;
69779;SDS011;57052;55.602;38.096;2022-12-29T00:08:54;4.28;;;1.75;;
69779;SDS011;57052;55.602;38.096;2022-12-29T00:11:20;5.72;;;1.63;;
69779;SDS011;57052;55.602;38.096;2022-12-29T00:13:47;3.70;;;2.00;;
69779;SDS011;57052;55.602;38.096;2022-12-29T00:16:32;4.30;;;1.70;;
69779;SDS011;57052;55.602;38.096;2022-12-29T00:18:59;3.80;;;2.00;;
69779;SDS011;57052;55.602;38.096;2022-12-29T00:21:25;4.47;;;1.52;;
69779;SDS011;57052;55.602;38.096;2022-12-29T00:24:13;4.32;;;1.80;;
69779;SDS011;57052;55.602;38.096;2022-12-29T00:27:26;3.15;;;1.73;;
69779;SDS011;57052;55.602;38.096;2022-12-29T00:30:07;3.47;;;1.75;;
69779;SDS011;57052;55.602;38.096;2022-12-29T00:32:53;5.13;;;2.17;;
69779;SDS011;57052;55.602;38.096;2022-12-29T00:35:45;4.00;;;1.65;;
69779;SDS011;57052;55.602;38.096;2022-12-29T00:38:17;6.57;;;1.77;;
69779;SDS011;57052;55.602;38.096;2022-12-29T00:41:02;4.30;;;1.83;;
69779;SDS011;57052;55.602;38.096;2022-12-29T00:43:46;4.22;;;1.85;;
69779;SDS011;57052;55.602;38.096;2022-12-29T00:46:30;4.28;;;2.00;;
69779;SDS011;57052;55.602;38.096;2022-12-29T00:48:56;3.95;;;1.73;;
69779;SDS011;57052;55.602;38.096;2022-12-29T00:51:40;3.72;;;2.00;;
69779;SDS011;57052;55.602;38.096;2022-12-29T00:54:06;3.80;;;1.88;;
69779;SDS011;57052;55.602;38.096;2022-12-29T00:56:31;4.22;;;1.83;;
69779;SDS011;57052;55.602;38.096;2022-12-29T00:59:04;6.03;;;2.00;;
69779;SDS011;57052;55.602;38.096;2022-12-29T01:01:32;4.22;;;1.65;;
69779;SDS011;57052;55.602;38.096;2022-12-29T01:03:58;3.78;;;1.92;;
69779;SDS011;57052;55.602;38.096;2022-12-29T01:06:23;3.40;;;1.60;;
69779;SDS011;57052;55.602;38.096;2022-12-29T01:08:49;5.38;;;1.70;;
69779;SDS011;57052;55.602;38.096;2022-12-29T01:11:35;3.60;;;1.55;;
69779;SDS011;57052;55.602;38.096;2022-12-29T01:14:01;5.53;;;1.80;;
69779;SDS011;57052;55.602;38.096;2022-12-29T01:16:26;2.33;;;1.30;;
69779;SDS011;57052;55.602;38.096;2022-12-29T01:18:52;3.05;;;1.40;;
69779;SDS011;57052;55.602;38.096;2022-12-29T01:21:18;3.25;;;1.30;;
69779;SDS011;57052;55.602;38.096;2022-12-29T01:23:44;3.42;;;1.55;;
69779;SDS011;57052;55.602;38.096;2022-12-29T01:26:10;5.03;;;1.52;;
69779;SDS011;57052;55.602;38.096;2022-12-29T01:28:37;2.63;;;1.20;;
69779;SDS011;57052;55.602;38.096;2022-12-29T01:31:05;3.22;;;1.23;;
69779;SDS011;57052;55.602;38.096;2022-12-29T01:33:31;5.28;;;1.73;;
69779;SDS011;57052;55.602;38.096;2022-12-29T01:36:04;3.65;;;1.50;;
69779;SDS011;57052;55.602;38.096;2022-12-29T01:38:31;4.82;;;1.20;;
69779;SDS011;57052;55.602;38.096;2022-12-29T01:40:58;3.63;;;1.30;;
69779;SDS011;57052;55.602;38.096;2022-12-29T01:49:14;2.33;;;1.08;;
69779;SDS011;57052;55.602;38.096;2022-12-29T01:51:45;3.58;;;1.20;;
69779;SDS011;57052;55.602;38.096;2022-12-29T01:54:20;2.63;;;1.08;;
69779;SDS011;57052;55.602;38.096;2022-12-29T01:56:51;5.70;;;1.40;;
69779;SDS011;57052;55.602;38.096;2022-12-29T01:59:21;3.10;;;1.10;;
69779;SDS011;57052;55.602;38.096;2022-12-29T02:01:49;1.88;;;1.10;;
69779;SDS011;57052;55.602;38.096;2022-12-29T02:04:15;2.95;;;1.30;;
69779;SDS011;57052;55.602;38.096;2022-12-29T02:06:43;4.60;;;1.20;;
69779;SDS011;57052;55.602;38.096;2022-12-29T02:09:14;4.68;;;1.27;;
69779;SDS011;57052;55.602;38.096;2022-12-29T02:11:40;4.75;;;1.35;;
69779;SDS011;57052;55.602;38.096;2022-12-29T02:14:12;2.47;;;1.38;;
69779;SDS011;57052;55.602;38.096;2022-12-29T02:22:19;2.63;;;1.00;;
69779;SDS011;57052;55.602;38.096;2022-12-29T02:30:48;7.20;;;1.40;;
69779;SDS011;57052;55.602;38.096;2022-12-29T02:33:21;4.15;;;1.23;;
69779;SDS011;57052;55.602;38.096;2022-12-29T02:41:32;5.28;;;1.35;;
69779;SDS011;57052;55.602;38.096;2022-12-29T02:54:55;4.10;;;1.30;;
69779;SDS011;57052;55.602;38.096;2022-12-29T02:59:53;5.65;;;1.70;;
69779;SDS011;57052;55.602;38.096;2022-12-29T03:02:30;4.10;;;1.48;;
69779;SDS011;57052;55.602;38.096;2022-12-29T03:10:57;4.57;;;1.40;;
69779;SDS011;57052;55.602;38.096;2022-12-29T03:16:21;3.00;;;1.52;;
69779;SDS011;57052;55.602;38.096;2022-12-29T03:24:38;4.10;;;1.48;;
69779;SDS011;57052;55.602;38.096;2022-12-29T03:29:39;3.67;;;1.52;;
69779;SDS011;57052;55.602;38.096;2022-12-29T03:32:11;5.13;;;1.75;;
69779;SDS011;57052;55.602;38.096;2022-12-29T03:34:39;3.88;;;1.45;;
69779;SDS011;57052;55.602;38.096;2022-12-29T03:37:06;5.78;;;2.10;;
69779;SDS011;57052;55.602;38.096;2022-12-29T03:39:39;8.95;;;2.30;;
69779;SDS011;57052;55.602;38.096;2022-12-29T03:42:05;5.75;;;1.83;;
69779;SDS011;57052;55.602;38.096;2022-12-29T03:44:44;6.13;;;2.00;;
69779;SDS011;57052;55.602;38.096;2022-12-29T03:47:11;5.78;;;2.30;;
69779;SDS011;57052;55.602;38.096;2022-12-29T03:49:38;6.72;;;2.50;;
69779;SDS011;57052;55.602;38.096;2022-12-29T03:52:04;7.43;;;2.42;;
69779;SDS011;57052;55.602;38.096;2022-12-29T03:54:30;5.95;;;2.75;;
69779;SDS011;57052;55.602;38.096;2022-12-29T03:56:56;6.07;;;2.42;;
69779;SDS011;57052;55.602;38.096;2022-12-29T03:59:22;6.25;;;2.50;;
69779;SDS011;57052;55.602;38.096;2022-12-29T04:01:48;5.95;;;2.38;;
69779;SDS011;57052;55.602;38.096;2022-12-29T04:04:13;11.05;;;2.50;;
69779;SDS011;57052;55.602;38.096;2022-12-29T04:06:39;11.50;;;2.50;;
69779;SDS011;57052;55.602;38.096;2022-12-29T04:09:05;6.82;;;2.20;;
69779;SDS011;57052;55.602;38.096;2022-12-29T04:11:30;7.43;;;2.25;;
69779;SDS011;57052;55.602;38.096;2022-12-29T04:13:56;9.73;;;2.90;;
69779;SDS011;57052;55.602;38.096;2022-12-29T04:16:22;4.03;;;2.08;;
69779;SDS011;57052;55.602;38.096;2022-12-29T04:18:47;8.63;;;2.33;;
69779;SDS011;57052;55.602;38.096;2022-12-29T04:21:13;7.38;;;2.63;;
69779;SDS011;57052;55.602;38.096;2022-12-29T04:23:39;6.72;;;2.33;;
69779;SDS011;57052;55.602;38.096;2022-12-29T04:26:05;5.80;;;2.15;;
69779;SDS011;57052;55.602;38.096;2022-12-29T04:28:33;7.28;;;2.42;;
69779;SDS011;57052;55.602;38.096;2022-12-29T04:30:58;6.00;;;2.33;;
69779;SDS011;57052;55.602;38.096;2022-12-29T04:33:24;7.38;;;2.40;;
69779;SDS011;57052;55.602;38.096;2022-12-29T04:35:50;6.75;;;2.63;;
69779;SDS011;57052;55.602;38.096;2022-12-29T04:38:18;7.20;;;2.70;;
69779;SDS011;57052;55.602;38.096;2022-12-29T04:40:43;8.02;;;2.58;;
69779;SDS011;57052;55.602;38.096;2022-12-29T04:43:09;5.85;;;2.42;;
69779;SDS011;57052;55.602;38.096;2022-12-29T04:45:36;7.03;;;2.38;;
69779;SDS011;57052;55.602;38.096;2022-12-29T04:48:01;6.60;;;2.40;;
69779;SDS011;57052;55.602;38.096;2022-12-29T04:50:27;7.95;;;2.47;;
69779;SDS011;57052;55.602;38.096;2022-12-29T04:52:53;7.68;;;1.92;;
69779;SDS011;57052;55.602;38.096;2022-12-29T04:55:19;6.05;;;2.72;;
69779;SDS011;57052;55.602;38.096;2022-12-29T04:57:44;5.60;;;2.58;;
69779;SDS011;57052;55.602;38.096;2022-12-29T05:00:10;4.10;;;2.00;;
69779;SDS011;57052;55.602;38.096;2022-12-29T05:02:36;4.50;;;2.30;;
69779;SDS011;57052;55.602;38.096;2022-12-29T05:05:02;6.35;;;2.50;;
69779;SDS011;57052;55.602;38.096;2022-12-29T05:07:29;5.25;;;2.45;;
69779;SDS011;57052;55.602;38.096;2022-12-29T05:09:55;5.13;;;2.25;;
69779;SDS011;57052;55.602;38.096;2022-12-29T05:12:20;5.15;;;2.42;;
69779;SDS011;57052;55.602;38.096;2022-12-29T05:14:46;6.68;;;2.60;;
69779;SDS011;57052;55.602;38.096;2022-12-29T05:17:11;5.25;;;2.47;;
69779;SDS011;57052;55.602;38.096;2022-12-29T05:19:37;6.03;;;2.40;;
69779;SDS011;57052;55.602;38.096;2022-12-29T05:22:03;6.97;;;2.60;;
69779;SDS011;57052;55.602;38.096;2022-12-29T05:24:29;6.68;;;2.72;;
69779;SDS011;57052;55.602;38.096;2022-12-29T05:26:54;6.13;;;2.67;;
69779;SDS011;57052;55.602;38.096;2022-12-29T05:29:20;7.53;;;2.50;;
69779;SDS011;57052;55.602;38.096;2022-12-29T05:31:46;7.57;;;3.15;;
69779;SDS011;57052;55.602;38.096;2022-12-29T05:34:11;10.18;;;3.25;;
69779;SDS011;57052;55.602;38.096;2022-12-29T05:36:37;8.20;;;2.88;;
69779;SDS011;57052;55.602;38.096;2022-12-29T05:39:03;6.80;;;3.03;;
69779;SDS011;57052;55.602;38.096;2022-12-29T05:41:29;6.38;;;3.10;;
69779;SDS011;57052;55.602;38.096;2022-12-29T05:43:55;9.90;;;3.50;;
69779;SDS011;57052;55.602;38.096;2022-12-29T05:46:20;6.50;;;2.70;;
69779;SDS011;57052;55.602;38.096;2022-12-29T05:48:46;9.05;;;3.53;;
69779;SDS011;57052;55.602;38.096;2022-12-29T05:51:11;9.05;;;2.80;;
69779;SDS011;57052;55.602;38.096;2022-12-29T05:53:37;9.80;;;3.53;;
69779;SDS011;57052;55.602;38.096;2022-12-29T05:56:02;8.23;;;3.17;;
69779;SDS011;57052;55.602;38.096;2022-12-29T05:58:28;10.75;;;3.53;;
69779;SDS011;57052;55.602;38.096;2022-12-29T06:00:54;9.93;;;2.88;;
69779;SDS011;57052;55.602;38.096;2022-12-29T06:03:19;6.22;;;3.03;;
69779;SDS011;57052;55.602;38.096;2022-12-29T06:05:45;7.82;;;3.25;;
69779;SDS011;57052;55.602;38.096;2022-12-29T06:08:11;8.38;;;2.83;;
69779;SDS011;57052;55.602;38.096;2022-12-29T06:10:37;9.43;;;3.40;;
69779;SDS011;57052;55.602;38.096;2022-12-29T06:13:03;8.95;;;3.40;;
69779;SDS011;57052;55.602;38.096;2022-12-29T06:15:30;11.73;;;3.72;;
69779;SDS011;57052;55.602;38.096;2022-12-29T06:17:59;12.82;;;3.92;;
69779;SDS011;57052;55.602;38.096;2022-12-29T06:20:26;11.70;;;3.88;;
69779;SDS011;57052;55.602;38.096;2022-12-29T06:22:52;10.02;;;4.47;;
69779;SDS011;57052;55.602;38.096;2022-12-29T06:25:17;8.35;;;3.60;;
69779;SDS011;57052;55.602;38.096;2022-12-29T06:27:43;8.77;;;3.72;;
69779;SDS011;57052;55.602;38.096;2022-12-29T06:30:09;10.10;;;3.55;;
69779;SDS011;57052;55.602;38.096;2022-12-29T06:32:36;7.32;;;3.53;;
69779;SDS011;57052;55.602;38.096;2022-12-29T06:35:02;7.85;;;2.85;;
69779;SDS011;57052;55.602;38.096;2022-12-29T06:37:29;10.00;;;3.20;;
69779;SDS011;57052;55.602;38.096;2022-12-29T06:39:55;8.60;;;3.40;;
69779;SDS011;57052;55.602;38.096;2022-12-29T06:42:21;6.32;;;2.70;;
69779;SDS011;57052;55.602;38.096;2022-12-29T06:44:46;7.85;;;3.40;;
69779;SDS011;57052;55.602;38.096;2022-12-29T06:47:12;10.13;;;3.90;;
69779;SDS011;57052;55.602;38.096;2022-12-29T06:49:38;10.25;;;4.13;;
69779;SDS011;57052;55.602;38.096;2022-12-29T06:52:03;12.35;;;4.18;;
69779;SDS011;57052;55.602;38.096;2022-12-29T06:54:30;9.80;;;4.38;;
69779;SDS011;57052;55.602;38.096;2022-12-29T06:56:56;9.02;;;4.32;;
69779;SDS011;57052;55.602;38.096;2022-12-29T06:59:22;12.48;;;4.55;;
69779;SDS011;57052;55.602;38.096;2022-12-29T07:01:47;10.73;;;4.30;;
69779;SDS011;57052;55.602;38.096;2022-12-29T07:04:13;11.38;;;4.20;;
69779;SDS011;57052;55.602;38.096;2022-12-29T07:06:39;10.55;;;4.25;;
69779;SDS011;57052;55.602;38.096;2022-12-29T07:09:06;12.18;;;5.03;;
69779;SDS011;57052;55.602;38.096;2022-12-29T07:11:32;10.43;;;5.05;;
69779;SDS011;57052;55.602;38.096;2022-12-29T07:13:58;12.48;;;5.50;;
69779;SDS011;57052;55.602;38.096;2022-12-29T07:16:24;9.80;;;4.60;;
69779;SDS011;57052;55.602;38.096;2022-12-29T07:18:50;9.15;;;4.70;;
69779;SDS011;57052;55.602;38.096;2022-12-29T07:21:16;10.27;;;4.93;;
69779;SDS011;57052;55.602;38.096;2022-12-29T07:23:42;12.60;;;5.80;;
69779;SDS011;57052;55.602;38.096;2022-12-29T07:26:09;13.18;;;5.28;;
69779;SDS011;57052;55.602;38.096;2022-12-29T07:28:37;12.55;;;5.25;;
69779;SDS011;57052;55.602;38.096;2022-12-29T07:31:09;10.23;;;5.20;;
69779;SDS011;57052;55.602;38.096;2022-12-29T07:33:40;14.05;;;5.57;;
69779;SDS011;57052;55.602;38.096;2022-12-29T07:36:06;11.02;;;5.70;;
69779;SDS011;57052;55.602;38.096;2022-12-29T07:38:32;14.65;;;6.40;;
69779;SDS011;57052;55.602;38.096;2022-12-29T07:40:57;12.80;;;5.50;;
69779;SDS011;57052;55.602;38.096;2022-12-29T07:43:23;10.75;;;5.63;;
69779;SDS011;57052;55.602;38.096;2022-12-29T07:45:49;12.48;;;6.05;;
69779;SDS011;57052;55.602;38.096;2022-12-29T07:48:15;10.00;;;4.63;;
69779;SDS011;57052;55.602;38.096;2022-12-29T07:50:41;12.63;;;5.93;;
69779;SDS011;57052;55.602;38.096;2022-12-29T07:53:06;15.43;;;5.60;;
69779;SDS011;57052;55.602;38.096;2022-12-29T07:55:32;16.02;;;5.93;;
69779;SDS011;57052;55.602;38.096;2022-12-29T07:57:58;15.90;;;6.35;;
69779;SDS011;57052;55.602;38.096;2022-12-29T08:00:23;13.30;;;6.07;;
69779;SDS011;57052;55.602;38.096;2022-12-29T08:02:49;12.43;;;5.45;;
69779;SDS011;57052;55.602;38.096;2022-12-29T08:05:15;13.90;;;6.20;;
69779;SDS011;57052;55.602;38.096;2022-12-29T08:07:44;15.23;;;6.03;;
69779;SDS011;57052;55.602;38.096;2022-12-29T08:10:11;15.15;;;6.13;;
69779;SDS011;57052;55.602;38.096;2022-12-29T08:12:38;15.23;;;6.10;;
69779;SDS011;57052;55.602;38.096;2022-12-29T08:15:05;15.88;;;6.47;;
69779;SDS011;57052;55.602;38.096;2022-12-29T08:17:31;13.25;;;6.90;;
69779;SDS011;57052;55.602;38.096;2022-12-29T08:19:57;18.35;;;7.50;;
69779;SDS011;57052;55.602;38.096;2022-12-29T08:22:24;20.27;;;7.78;;
69779;SDS011;57052;55.602;38.096;2022-12-29T08:24:50;20.17;;;7.20;;
69779;SDS011;57052;55.602;38.096;2022-12-29T08:27:16;19.70;;;8.30;;
69779;SDS011;57052;55.602;38.096;2022-12-29T08:29:42;18.38;;;7.82;;
69779;SDS011;57052;55.602;38.096;2022-12-29T08:32:08;19.15;;;8.43;;
69779;SDS011;57052;55.602;38.096;2022-12-29T08:34:33;23.30;;;9.07;;
69779;SDS011;57052;55.602;38.096;2022-12-29T08:36:59;20.23;;;7.57;;
69779;SDS011;57052;55.602;38.096;2022-12-29T08:39:25;22.20;;;7.60;;
69779;SDS011;57052;55.602;38.096;2022-12-29T08:41:50;18.45;;;7.43;;
69779;SDS011;57052;55.602;38.096;2022-12-29T08:44:16;18.90;;;8.07;;
69779;SDS011;57052;55.602;38.096;2022-12-29T08:46:42;17.83;;;7.10;;
69779;SDS011;57052;55.602;38.096;2022-12-29T08:49:08;18.50;;;7.13;;
69779;SDS011;57052;55.602;38.096;2022-12-29T08:51:33;23.02;;;8.25;;
69779;SDS011;57052;55.602;38.096;2022-12-29T08:53:59;21.70;;;8.02;;
69779;SDS011;57052;55.602;38.096;2022-12-29T08:56:27;21.50;;;6.88;;
69779;SDS011;57052;55.602;38.096;2022-12-29T08:58:53;16.38;;;6.97;;
69779;SDS011;57052;55.602;38.096;2022-12-29T09:01:20;18.77;;;6.68;;
69779;SDS011;57052;55.602;38.096;2022-12-29T09:03:46;17.55;;;7.25;;
69779;SDS011;57052;55.602;38.096;2022-12-29T09:06:12;17.35;;;6.93;;
69779;SDS011;57052;55.602;38.096;2022-12-29T09:08:38;17.95;;;7.38;;
69779;SDS011;57052;55.602;38.096;2022-12-29T09:11:07;18.88;;;6.90;;
69779;SDS011;57052;55.602;38.096;2022-12-29T09:13:35;13.90;;;5.38;;
69779;SDS011;57052;55.602;38.096;2022-12-29T09:16:01;15.10;;;6.20;;
69779;SDS011;57052;55.602;38.096;2022-12-29T09:18:26;17.40;;;6.47;;
69779;SDS011;57052;55.602;38.096;2022-12-29T09:20:56;16.77;;;5.85;;
69779;SDS011;57052;55.602;38.096;2022-12-29T09:23:23;17.05;;;6.78;;
69779;SDS011;57052;55.602;38.096;2022-12-29T09:25:48;15.07;;;6.55;;
69779;SDS011;57052;55.602;38.096;2022-12-29T09:28:14;19.80;;;7.38;;
69779;SDS011;57052;55.602;38.096;2022-12-29T09:30:41;18.75;;;6.10;;
69779;SDS011;57052;55.602;38.096;2022-12-29T09:33:07;18.92;;;6.78;;
69779;SDS011;57052;55.602;38.096;2022-12-29T09:35:36;16.38;;;6.60;;
69779;SDS011;57052;55.602;38.096;2022-12-29T09:38:01;15.23;;;6.55;;
69779;SDS011;57052;55.602;38.096;2022-12-29T09:40:31;45.08;;;13.40;;
69779;SDS011;57052;55.602;38.096;2022-12-29T09:43:17;22.67;;;7.65;;
69779;SDS011;57052;55.602;38.096;2022-12-29T09:48:23;18.05;;;7.07;;
69779;SDS011;57052;55.602;38.096;2022-12-29T09:50:55;17.73;;;7.07;;
69779;SDS011;57052;55.602;38.096;2022-12-29T09:53:29;20.02;;;7.45;;
69779;SDS011;57052;55.602;38.096;2022-12-29T09:56:03;19.08;;;8.10;;
69779;SDS011;57052;55.602;38.096;2022-12-29T09:58:45;24.65;;;7.90;;
69779;SDS011;57052;55.602;38.096;2022-12-29T10:03:56;18.50;;;7.30;;
69779;SDS011;57052;55.602;38.096;2022-12-29T10:25:41;21.70;;;7.57;;
69779;SDS011;57052;55.602;38.096;2022-12-29T10:30:47;16.95;;;7.55;;
69779;SDS011;57052;55.602;38.096;2022-12-29T10:33:21;23.17;;;8.10;;
69779;SDS011;57052;55.602;38.096;2022-12-29T10:35:51;20.08;;;7.63;;
69779;SDS011;57052;55.602;38.096;2022-12-29T10:41:00;20.73;;;8.00;;
69779;SDS011;57052;55.602;38.096;2022-12-29T10:43:51;18.65;;;7.60;;
69779;SDS011;57052;55.602;38.096;2022-12-29T10:46:27;16.90;;;7.28;;
69779;SDS011;57052;55.602;38.096;2022-12-29T10:48:58;15.68;;;6.82;;
69779;SDS011;57052;55.602;38.096;2022-12-29T10:51:27;24.33;;;7.95;;
69779;SDS011;57052;55.602;38.096;2022-12-29T10:53:58;17.55;;;7.43;;
69779;SDS011;57052;55.602;38.096;2022-12-29T10:58:59;18.05;;;7.32;;
69779;SDS011;57052;55.602;38.096;2022-12-29T11:01:38;21.17;;;7.78;;
69779;SDS011;57052;55.602;38.096;2022-12-29T11:07:25;19.27;;;7.95;;
69779;SDS011;57052;55.602;38.096;2022-12-29T11:09:51;19.67;;;6.88;;
69779;SDS011;57052;55.602;38.096;2022-12-29T11:12:18;19.17;;;7.53;;
69779;SDS011;57052;55.602;38.096;2022-12-29T11:14:45;23.35;;;8.57;;
69779;SDS011;57052;55.602;38.096;2022-12-29T11:17:16;18.45;;;7.75;;
69779;SDS011;57052;55.602;38.096;2022-12-29T11:19:43;19.27;;;7.88;;
69779;SDS011;57052;55.602;38.096;2022-12-29T11:27:22;20.05;;;7.13;;
69779;SDS011;57052;55.602;38.096;2022-12-29T11:29:49;19.50;;;6.80;;
69779;SDS011;57052;55.602;38.096;2022-12-29T11:32:18;16.85;;;7.60;;
69779;SDS011;57052;55.602;38.096;2022-12-29T11:34:48;14.50;;;5.70;;
69779;SDS011;57052;55.602;38.096;2022-12-29T11:37:15;15.50;;;5.35;;
69779;SDS011;57052;55.602;38.096;2022-12-29T11:40:03;14.32;;;5.50;;
69779;SDS011;57052;55.602;38.096;2022-12-29T11:45:15;11.35;;;5.00;;
69779;SDS011;57052;55.602;38.096;2022-12-29T11:50:54;8.73;;;3.88;;
69779;SDS011;57052;55.602;38.096;2022-12-29T11:53:31;10.65;;;4.43;;
69779;SDS011;57052;55.602;38.096;2022-12-29T12:04:40;10.02;;;4.00;;
69779;SDS011;57052;55.602;38.096;2022-12-29T12:07:11;8.73;;;3.97;;
69779;SDS011;57052;55.602;38.096;2022-12-29T12:12:24;10.32;;;4.35;;
69779;SDS011;57052;55.602;38.096;2022-12-29T12:14:56;7.15;;;4.10;;
69779;SDS011;57052;55.602;38.096;2022-12-29T12:18:00;10.00;;;4.10;;
69779;SDS011;57052;55.602;38.096;2022-12-29T12:20:38;10.70;;;4.25;;
69779;SDS011;57052;55.602;38.096;2022-12-29T12:33:55;12.48;;;5.35;;
69779;SDS011;57052;55.602;38.096;2022-12-29T12:39:06;10.57;;;4.65;;
69779;SDS011;57052;55.602;38.096;2022-12-29T12:46:57;12.27;;;4.65;;
69779;SDS011;57052;55.602;38.096;2022-12-29T12:52:18;8.52;;;3.95;;
69779;SDS011;57052;55.602;38.096;2022-12-29T13:00:56;11.52;;;4.22;;
69779;SDS011;57052;55.602;38.096;2022-12-29T13:14:53;9.95;;;4.25;;
69779;SDS011;57052;55.602;38.096;2022-12-29T13:17:33;10.15;;;4.57;;
69779;SDS011;57052;55.602;38.096;2022-12-29T13:26:14;7.93;;;3.65;;
69779;SDS011;57052;55.602;38.096;2022-12-29T13:32:03;11.30;;;4.45;;
69779;SDS011;57052;55.602;38.096;2022-12-29T13:34:46;7.88;;;3.53;;
69779;SDS011;57052;55.602;38.096;2022-12-29T13:37:45;9.63;;;4.38;;
69779;SDS011;57052;55.602;38.096;2022-12-29T13:40:21;10.65;;;4.68;;
69779;SDS011;57052;55.602;38.096;2022-12-29T13:42:50;9.43;;;4.30;;
69779;SDS011;57052;55.602;38.096;2022-12-29T13:45:21;11.60;;;4.25;;
69779;SDS011;57052;55.602;38.096;2022-12-29T13:50:44;8.98;;;3.55;;
69779;SDS011;57052;55.602;38.096;2022-12-29T13:53:30;10.35;;;5.22;;
69779;SDS011;57052;55.602;38.096;2022-12-29T13:56:25;11.93;;;5.40;;
69779;SDS011;57052;55.602;38.096;2022-12-29T14:02:25;14.20;;;5.05;;
69779;SDS011;57052;55.602;38.096;2022-12-29T14:05:05;12.65;;;6.18;;
69779;SDS011;57052;55.602;38.096;2022-12-29T14:08:01;13.85;;;6.82;;
69779;SDS011;57052;55.602;38.096;2022-12-29T14:10:33;16.98;;;7.13;;
69779;SDS011;57052;55.602;38.096;2022-12-29T14:13:18;13.68;;;5.93;;
69779;SDS011;57052;55.602;38.096;2022-12-29T14:15:55;12.45;;;5.18;;
69779;SDS011;57052;55.602;38.096;2022-12-29T14:18:30;12.27;;;4.75;;
69779;SDS011;57052;55.602;38.096;2022-12-29T14:23:40;11.30;;;4.55;;
69779;SDS011;57052;55.602;38.096;2022-12-29T14:26:14;9.32;;;4.72;;
69779;SDS011;57052;55.602;38.096;2022-12-29T14:29:16;12.07;;;5.20;;
69779;SDS011;57052;55.602;38.096;2022-12-29T14:32:02;14.10;;;5.00;;
69779;SDS011;57052;55.602;38.096;2022-12-29T14:34:51;10.85;;;4.50;;
69779;SDS011;57052;55.602;38.096;2022-12-29T14:40:03;12.35;;;4.97;;
69779;SDS011;57052;55.602;38.096;2022-12-29T14:42:44;11.25;;;4.72;;
69779;SDS011;57052;55.602;38.096;2022-12-29T14:47:40;15.30;;;5.38;;
69779;SDS011;57052;55.602;38.096;2022-12-29T14:50:13;13.00;;;5.88;;
69779;SDS011;57052;55.602;38.096;2022-12-29T14:52:48;14.52;;;5.90;;
69779;SDS011;57052;55.602;38.096;2022-12-29T14:58:44;14.80;;;6.53;;
69779;SDS011;57052;55.602;38.096;2022-12-29T15:00:43;15.60;;;7.15;;
69779;SDS011;57052;55.602;38.096;2022-12-29T15:08:53;22.02;;;7.68;;
69779;SDS011;57052;55.602;38.096;2022-12-29T15:17:02;19.15;;;7.70;;
69779;SDS011;57052;55.602;38.096;2022-12-29T15:19:35;14.07;;;7.38;;
69779;SDS011;57052;55.602;38.096;2022-12-29T15:22:02;19.40;;;7.45;;
69779;SDS011;57052;55.602;38.096;2022-12-29T15:24:27;17.25;;;7.22;;
69779;SDS011;57052;55.602;38.096;2022-12-29T15:26:54;14.57;;;7.53;;
69779;SDS011;57052;55.602;38.096;2022-12-29T15:29:35;16.45;;;7.70;;
69779;SDS011;57052;55.602;38.096;2022-12-29T15:34:43;16.02;;;6.63;;
69779;SDS011;57052;55.602;38.096;2022-12-29T15:37:17;14.32;;;6.22;;
69779;SDS011;57052;55.602;38.096;2022-12-29T15:39:45;15.77;;;7.13;;
69779;SDS011;57052;55.602;38.096;2022-12-29T15:45:12;16.17;;;6.22;;
69779;SDS011;57052;55.602;38.096;2022-12-29T15:47:39;17.85;;;6.65;;
69779;SDS011;57052;55.602;38.096;2022-12-29T15:52:33;14.23;;;6.15;;
69779;SDS011;57052;55.602;38.096;2022-12-29T15:54:59;15.98;;;6.55;;
69779;SDS011;57052;55.602;38.096;2022-12-29T15:57:30;16.98;;;7.10;;
69779;SDS011;57052;55.602;38.096;2022-12-29T16:00:03;18.13;;;6.15;;
69779;SDS011;57052;55.602;38.096;2022-12-29T16:02:46;15.70;;;6.25;;
69779;SDS011;57052;55.602;38.096;2022-12-29T16:05:16;17.20;;;6.45;;
69779;SDS011;57052;55.602;38.096;2022-12-29T16:07:51;12.38;;;5.65;;
69779;SDS011;57052;55.602;38.096;2022-12-29T16:10:41;14.82;;;5.40;;
69779;SDS011;57052;55.602;38.096;2022-12-29T16:18:24;14.32;;;5.43;;
69779;SDS011;57052;55.602;38.096;2022-12-29T16:20:53;16.23;;;5.82;;
69779;SDS011;57052;55.602;38.096;2022-12-29T16:23:24;12.75;;;6.00;;
69779;SDS011;57052;55.602;38.096;2022-12-29T16:25:52;13.93;;;5.97;;
69779;SDS011;57052;55.602;38.096;2022-12-29T16:28:21;17.17;;;6.50;;
69779;SDS011;57052;55.602;38.096;2022-12-29T16:30:59;15.63;;;6.35;;
69779;SDS011;57052;55.602;38.096;2022-12-29T16:33:33;13.07;;;6.07;;
69779;SDS011;57052;55.602;38.096;2022-12-29T16:36:00;17.02;;;6.55;;
69779;SDS011;57052;55.602;38.096;2022-12-29T16:38:30;17.98;;;5.93;;
69779;SDS011;57052;55.602;38.096;2022-12-29T16:41:01;19.02;;;6.63;;
69779;SDS011;57052;55.602;38.096;2022-12-29T16:43:28;15.05;;;6.30;;
69779;SDS011;57052;55.602;38.096;2022-12-29T16:48:25;20.17;;;6.55;;
69779;SDS011;57052;55.602;38.096;2022-12-29T16:51:04;16.98;;;6.57;;
69779;SDS011;57052;55.602;38.096;2022-12-29T16:53:32;13.40;;;5.60;;
69779;SDS011;57052;55.602;38.096;2022-12-29T16:56:16;14.45;;;5.88;;
69779;SDS011;57052;55.602;38.096;2022-12-29T16:58:48;15.88;;;6.28;;
69779;SDS011;57052;55.602;38.096;2022-12-29T17:01:16;13.90;;;6.28;;
69779;SDS011;57052;55.602;38.096;2022-12-29T17:03:53;15.93;;;6.32;;
69779;SDS011;57052;55.602;38.096;2022-12-29T17:06:22;15.55;;;5.72;;
69779;SDS011;57052;55.602;38.096;2022-12-29T17:08:48;13.68;;;5.65;;
69779;SDS011;57052;55.602;38.096;2022-12-29T17:11:36;16.85;;;6.03;;
69779;SDS011;57052;55.602;38.096;2022-12-29T17:16:51;14.70;;;6.07;;
69779;SDS011;57052;55.602;38.096;2022-12-29T17:19:17;14.05;;;5.60;;
69779;SDS011;57052;55.602;38.096;2022-12-29T17:21:45;18.70;;;6.30;;
69779;SDS011;57052;55.602;38.096;2022-12-29T17:24:14;13.40;;;5.90;;
69779;SDS011;57052;55.602;38.096;2022-12-29T17:26:42;14.90;;;6.15;;
69779;SDS011;57052;55.602;38.096;2022-12-29T17:29:12;16.73;;;6.25;;
69779;SDS011;57052;55.602;38.096;2022-12-29T17:31:44;13.98;;;6.25;;
69779;SDS011;57052;55.602;38.096;2022-12-29T17:34:10;16.77;;;6.57;;
69779;SDS011;57052;55.602;38.096;2022-12-29T17:36:37;17.23;;;6.45;;
69779;SDS011;57052;55.602;38.096;2022-12-29T17:39:04;16.00;;;6.15;;
69779;SDS011;57052;55.602;38.096;2022-12-29T17:41:31;15.18;;;6.20;;
69779;SDS011;57052;55.602;38.096;2022-12-29T17:44:08;17.33;;;6.18;;
69779;SDS011;57052;55.602;38.096;2022-12-29T17:46:49;20.52;;;6.72;;
69779;SDS011;57052;55.602;38.096;2022-12-29T17:49:15;14.30;;;6.32;;
69779;SDS011;57052;55.602;38.096;2022-12-29T17:51:42;18.70;;;7.45;;
69779;SDS011;57052;55.602;38.096;2022-12-29T17:54:20;17.17;;;6.95;;
69779;SDS011;57052;55.602;38.096;2022-12-29T17:56:47;17.67;;;6.30;;
69779;SDS011;57052;55.602;38.096;2022-12-29T17:59:13;17.48;;;6.22;;
69779;SDS011;57052;55.602;38.096;2022-12-29T18:01:40;18.35;;;6.63;;
69779;SDS011;57052;55.602;38.096;2022-12-29T18:04:12;15.85;;;6.57;;
69779;SDS011;57052;55.602;38.096;2022-12-29T18:06:41;17.00;;;7.43;;
69779;SDS011;57052;55.602;38.096;2022-12-29T18:09:07;16.25;;;6.28;;